createdAt,value
2019-04-19T00:04:29.316Z,101555.34
2019-04-19T00:10:23.658Z,101560.99
2019-04-19T00:27:18.017Z,101569.90
2019-04-19T00:30:03.108Z,101560.61
2019-04-19T00:32:42.536Z,101565.98
2019-04-19T00:35:47.531Z,101569.88
2019-04-19T00:44:30.216Z,101571.84
2019-04-19T00:46:53.867Z,101577.23
2019-04-19T00:49:33.948Z,101577.30
2019-04-19T00:52:16.770Z,101571.54
2019-04-19T00:55:25.968Z,101571.58
2019-04-19T00:58:06.496Z,101576.83
2019-04-19T01:01:20.343Z,101574.11
2019-04-19T01:06:45.829Z,101575.31
2019-04-19T01:09:24.402Z,101573.68
2019-04-19T01:12:03.108Z,101570.50
2019-04-19T01:14:36.375Z,101574.83
2019-04-19T01:17:17.513Z,101573.19
2019-04-19T01:19:46.951Z,101572.14
2019-04-19T01:22:21.464Z,101569.59
2019-04-19T01:24:51.614Z,101569.45
2019-04-19T01:27:32.529Z,101571.64
2019-04-19T01:30:46.559Z,101577.52
2019-04-19T01:36:08.909Z,101577.42
2019-04-19T01:38:40.859Z,101576.61
2019-04-19T01:41:30.934Z,101569.68
2019-04-19T01:49:46.493Z,101577.62
2019-04-19T01:55:38.967Z,101584.11
2019-04-19T01:58:14.061Z,101583.64
2019-04-19T02:00:50.836Z,101577.42
2019-04-19T02:03:31.436Z,101579.20
2019-04-19T02:06:14.626Z,101579.69
2019-04-19T02:08:47.395Z,101576.37
2019-04-19T02:12:23.664Z,101580.33
2019-04-19T02:14:48.611Z,101575.81
2019-04-19T02:17:27.546Z,101581.22
2019-04-19T02:20:06.106Z,101580.08
2019-04-19T02:22:39.607Z,101574.09
2019-04-19T02:25:16.698Z,101579.02
2019-04-19T02:27:45.591Z,101581.68
2019-04-19T02:30:41.419Z,101583.02
2019-04-19T02:33:30.179Z,101585.84
2019-04-19T02:39:10.755Z,101589.66
2019-04-19T02:41:40.046Z,101593.14
2019-04-19T02:53:15.831Z,101606.81
2019-04-19T03:01:47.728Z,101610.47
2019-04-19T03:10:49.893Z,101619.86
2019-04-19T03:13:17.312Z,101621.48
2019-04-19T03:18:53.686Z,101628.84
2019-04-19T03:21:42.897Z,101619.41
2019-04-19T03:25:05.039Z,101622.79
2019-04-19T03:27:19.288Z,101618.09
2019-04-19T03:29:42.269Z,101626.66
2019-04-19T03:35:03.968Z,101630.44
2019-04-19T03:37:48.167Z,101625.71
2019-04-19T03:43:41.168Z,101632.30
2019-04-19T03:52:36.972Z,101643.05
2019-04-19T03:56:09.292Z,101643.42
2019-04-19T03:58:24.951Z,101648.40
2019-04-19T04:00:58.138Z,101639.66
2019-04-19T04:03:38.473Z,101647.09
2019-04-19T04:06:08.386Z,101646.80
2019-04-19T04:11:56.100Z,101655.64
2019-04-19T04:14:56.766Z,101658.00
2019-04-19T04:20:22.143Z,101657.92
2019-04-19T04:23:15.507Z,101653.97
2019-04-19T04:25:54.253Z,101666.95
2019-04-19T04:28:33.376Z,101668.60
2019-04-19T04:34:10.677Z,101671.81
2019-04-19T04:37:02.942Z,101673.78
2019-04-19T04:39:21.808Z,101674.62
2019-04-19T04:42:44.397Z,101674.52
2019-04-19T04:48:43.890Z,101673.02
2019-04-19T04:57:37.867Z,101685.36
2019-04-19T05:00:22.250Z,101692.11
2019-04-19T05:03:48.365Z,101690.57
2019-04-19T05:06:25.471Z,101689.91
2019-04-19T05:12:10.598Z,101702.28
2019-04-19T05:15:34.836Z,101704.94
2019-04-19T05:24:27.684Z,101702.55
2019-04-19T05:27:46.570Z,101707.54
2019-04-19T05:30:11.617Z,101721.56
2019-04-19T05:45:57.980Z,101722.20
2019-04-19T05:48:08.524Z,101718.52
2019-04-19T05:51:14.428Z,101727.53
2019-04-19T05:53:34.282Z,101730.55
2019-04-19T05:56:04.858Z,101734.31
2019-04-19T05:58:52.170Z,101736.14
2019-04-19T06:01:31.690Z,101736.78
2019-04-19T06:07:28.103Z,101736.59
2019-04-19T06:09:45.589Z,101737.63
2019-04-19T06:12:23.593Z,101739.50
2019-04-19T06:15:55.724Z,101743.23
2019-04-19T06:21:27.761Z,101743.74
2019-04-19T06:24:22.207Z,101740.02
2019-04-19T06:27:08.633Z,101742.47
2019-04-19T06:29:45.049Z,101745.75
2019-04-19T06:32:15.505Z,101743.30
2019-04-19T06:35:23.963Z,101744.91
2019-04-19T06:43:41.065Z,101741.37
2019-04-19T06:46:23.086Z,101755.98
2019-04-19T06:49:08.384Z,101752.13
2019-04-19T06:51:45.693Z,101753.29
2019-04-19T06:54:14.423Z,101756.59
2019-04-19T06:56:58.415Z,101760.56
2019-04-19T07:00:11.544Z,101753.17
2019-04-19T07:02:24.270Z,101759.02
2019-04-19T07:06:09.229Z,101758.34
2019-04-19T07:12:05.338Z,101771.33
2019-04-19T07:17:59.883Z,101764.91
2019-04-19T07:21:25.887Z,101769.42
2019-04-19T07:26:52.507Z,101769.70
2019-04-19T07:29:25.646Z,101766.25
2019-04-19T07:31:53.568Z,101771.91
2019-04-19T07:34:58.341Z,101772.16
2019-04-19T07:37:31.261Z,101777.58
2019-04-19T07:40:16.048Z,101778.00
2019-04-19T07:42:56.469Z,101780.39
2019-04-19T07:49:02.124Z,101778.08
2019-04-19T07:51:34.219Z,101778.68
2019-04-19T07:54:13.555Z,101784.41
2019-04-19T07:56:55.723Z,101783.69
2019-04-19T08:03:39.253Z,101781.86
2019-04-19T08:05:59.354Z,101771.84
2019-04-19T08:14:38.340Z,101775.30
2019-04-19T08:29:17.159Z,101783.59
2019-04-19T08:32:19.465Z,101777.04
2019-04-19T08:34:53.700Z,101784.61
2019-04-19T08:37:22.611Z,101780.66
2019-04-19T08:46:13.599Z,101789.94
2019-04-19T08:49:02.886Z,101789.84
2019-04-19T08:51:55.949Z,101786.39
2019-04-19T08:54:53.666Z,101776.25
2019-04-19T08:57:10.538Z,101777.52
2019-04-19T08:59:59.494Z,101783.34
2019-04-19T09:02:44.164Z,101768.70
2019-04-19T09:05:15.630Z,101769.50
2019-04-19T09:08:05.668Z,101770.64
2019-04-19T09:10:41.523Z,101783.05
2019-04-19T09:13:22.698Z,101773.41
2019-04-19T09:27:26.201Z,101774.02
2019-04-19T09:29:55.769Z,101766.41
2019-04-19T09:32:20.606Z,101759.61
2019-04-19T09:34:55.903Z,101770.33
2019-04-19T09:37:58.280Z,101759.92
2019-04-19T09:40:42.880Z,101759.75
2019-04-19T09:43:19.959Z,101759.75
2019-04-19T09:45:34.064Z,101763.14
2019-04-19T09:48:01.473Z,101757.11
2019-04-19T09:50:46.056Z,101752.04
2019-04-19T09:53:29.184Z,101751.75
2019-04-19T09:55:49.835Z,101763.51
2019-04-19T09:58:16.960Z,101763.44
2019-04-19T10:00:28.940Z,101764.70
2019-04-19T10:03:02.728Z,101750.87
2019-04-19T10:05:25.027Z,101752.03
2019-04-19T10:10:20.764Z,101750.97
2019-04-19T10:12:49.677Z,101760.38
2019-04-19T10:15:28.040Z,101772.73
2019-04-19T10:17:56.413Z,101750.27
2019-04-19T10:20:33.232Z,101756.94
2019-04-19T10:23:02.526Z,101751.84
2019-04-19T10:25:33.279Z,101763.92
2019-04-19T10:28:01.365Z,101757.03
2019-04-19T10:30:36.402Z,101754.30
2019-04-19T10:33:04.558Z,101752.11
2019-04-19T10:35:31.987Z,101761.52
2019-04-19T10:37:59.754Z,101758.99
2019-04-19T10:40:27.864Z,101748.87
2019-04-19T10:42:55.031Z,101751.04
2019-04-19T10:45:23.881Z,101755.28
2019-04-19T10:47:51.758Z,101752.27
2019-04-19T10:50:32.279Z,101749.60
2019-04-19T10:52:52.476Z,101733.33
2019-04-19T10:55:22.415Z,101750.00
2019-04-19T10:57:49.784Z,101736.22
2019-04-19T11:00:17.848Z,101730.70
2019-04-19T11:02:46.269Z,101735.25
2019-04-19T11:05:14.580Z,101733.91
2019-04-19T11:07:43.487Z,101732.06
2019-04-19T11:10:11.869Z,101728.37
2019-04-19T11:12:40.648Z,101735.09
2019-04-19T11:15:08.825Z,101732.60
2019-04-19T11:17:36.064Z,101725.36
2019-04-19T11:20:20.125Z,101721.69
2019-04-19T11:22:35.491Z,101724.75
2019-04-19T11:25:03.929Z,101714.84
2019-04-19T11:27:31.204Z,101718.03
2019-04-19T11:30:01.299Z,101712.97
2019-04-19T11:32:54.883Z,101713.65
2019-04-19T11:35:23.667Z,101711.97
2019-04-19T11:37:51.350Z,101724.75
2019-04-19T11:40:19.554Z,101717.35
2019-04-19T11:42:46.854Z,101708.61
2019-04-19T11:45:15.666Z,101709.30
2019-04-19T11:47:43.063Z,101700.21
2019-04-19T11:50:13.790Z,101704.05
2019-04-19T11:52:46.109Z,101702.70
2019-04-19T11:55:14.706Z,101703.37
2019-04-19T11:57:52.549Z,101702.39
2019-04-19T12:00:32.069Z,101699.00
2019-04-19T12:03:00.220Z,101702.19
2019-04-19T12:05:30.778Z,101705.52
2019-04-19T12:07:56.924Z,101689.19
2019-04-19T12:10:24.536Z,101703.83
2019-04-19T12:12:53.024Z,101700.15
2019-04-19T12:15:22.219Z,101705.71
2019-04-19T12:17:50.694Z,101700.64
2019-04-19T12:20:19.263Z,101701.47
2019-04-19T12:22:46.667Z,101698.97
2019-04-19T12:25:13.873Z,101691.59
2019-04-19T12:27:41.659Z,101694.44
2019-04-19T12:30:09.869Z,101705.35
2019-04-19T12:32:49.623Z,101691.39
2019-04-19T12:35:16.963Z,101684.14
2019-04-19T12:37:45.026Z,101691.00
2019-04-19T12:40:12.895Z,101703.47
2019-04-19T12:42:40.421Z,101693.56
2019-04-19T12:45:10.216Z,101700.45
2019-04-19T12:47:38.301Z,101693.03
2019-04-19T12:50:09.083Z,101691.36
2019-04-19T12:52:35.950Z,101691.36
2019-04-19T12:55:03.955Z,101688.96
2019-04-19T12:57:36.177Z,101689.98
2019-04-19T13:00:05.622Z,101687.62
2019-04-19T13:02:45.733Z,101678.03
2019-04-19T13:05:16.277Z,101691.00
2019-04-19T13:07:43.569Z,101674.85
2019-04-19T13:10:11.146Z,101672.28
2019-04-19T13:12:39.068Z,101663.84
2019-04-19T13:15:09.395Z,101666.84
2019-04-19T13:17:38.097Z,101658.57
2019-04-19T13:20:12.801Z,101673.55
2019-04-19T13:22:34.963Z,101668.04
2019-04-19T13:25:03.533Z,101657.97
2019-04-19T13:27:41.850Z,101661.95
2019-04-19T13:30:10.579Z,101646.13
2019-04-19T13:32:29.623Z,101654.53
2019-04-19T13:34:57.134Z,101643.98
2019-04-19T13:37:35.036Z,101650.55
2019-04-19T13:40:28.304Z,101652.43
2019-04-19T13:42:58.519Z,101654.48
2019-04-19T13:45:29.386Z,101649.10
2019-04-19T13:47:54.563Z,101639.19
2019-04-19T13:50:30.319Z,101641.02
2019-04-19T13:52:51.314Z,101647.76
2019-04-19T13:55:19.071Z,101629.70
2019-04-19T13:57:46.286Z,101646.19
2019-04-19T14:00:20.399Z,101638.80
2019-04-19T14:02:47.881Z,101621.94
2019-04-19T14:05:15.713Z,101628.20
2019-04-19T14:07:43.237Z,101627.94
2019-04-19T14:10:10.571Z,101626.27
2019-04-19T14:12:38.901Z,101620.84
2019-04-19T14:15:06.836Z,101615.92
2019-04-19T14:17:35.908Z,101623.13
2019-04-19T14:20:05.000Z,101620.23
2019-04-19T14:22:33.741Z,101620.24
2019-04-19T14:25:01.499Z,101616.69
2019-04-19T14:27:29.166Z,101614.38
2019-04-19T14:29:57.278Z,101606.33
2019-04-19T14:32:25.283Z,101606.67
2019-04-19T14:34:53.992Z,101607.35
2019-04-19T14:37:22.443Z,101608.22
2019-04-19T14:39:49.760Z,101602.03
2019-04-19T14:42:17.387Z,101601.72
2019-04-19T14:44:45.378Z,101600.42
2019-04-19T14:47:13.146Z,101597.41
2019-04-19T14:49:40.795Z,101599.40
2019-04-19T14:52:08.155Z,101587.88
2019-04-19T14:54:35.822Z,101592.29
2019-04-19T14:57:03.230Z,101598.48
2019-04-19T14:59:31.539Z,101588.58
2019-04-19T15:02:04.724Z,101588.69
2019-04-19T15:04:42.784Z,101585.83
2019-04-19T15:07:10.258Z,101585.67
2019-04-19T15:09:37.558Z,101583.84
2019-04-19T15:12:04.944Z,101586.21
2019-04-19T15:14:32.553Z,101583.03
2019-04-19T15:17:00.536Z,101588.79
2019-04-19T15:19:29.405Z,101586.00
2019-04-19T15:21:56.673Z,101585.31
2019-04-19T15:24:23.966Z,101586.75
2019-04-19T15:26:52.450Z,101580.72
2019-04-19T15:29:20.814Z,101574.54
2019-04-19T15:31:48.639Z,101579.81
2019-04-19T15:34:16.051Z,101576.66
2019-04-19T15:36:43.868Z,101578.52
2019-04-19T15:39:11.228Z,101582.02
2019-04-19T15:41:40.119Z,101584.28
2019-04-19T15:44:08.434Z,101579.59
2019-04-19T15:46:36.026Z,101585.03
2019-04-19T15:49:03.779Z,101588.00
2019-04-19T15:51:35.706Z,101579.59
2019-04-19T15:54:00.399Z,101586.70
2019-04-19T15:56:27.629Z,101582.94
2019-04-19T15:58:54.952Z,101585.30
2019-04-19T16:01:31.202Z,101582.60
2019-04-19T16:03:59.935Z,101582.13
2019-04-19T16:06:47.967Z,101580.84
2019-04-19T16:10:00.280Z,101577.50
2019-04-19T16:12:26.989Z,101574.44
2019-04-19T16:14:54.142Z,101574.60
2019-04-19T16:17:21.381Z,101569.96
2019-04-19T16:19:49.105Z,101579.55
2019-04-19T16:22:16.388Z,101579.16
2019-04-19T16:24:43.613Z,101573.80
2019-04-19T16:27:11.238Z,101575.56
2019-04-19T16:29:44.932Z,101574.39
2019-04-19T16:32:09.097Z,101574.55
2019-04-19T16:34:36.459Z,101569.21
2019-04-19T16:37:04.638Z,101577.56
2019-04-19T16:39:33.196Z,101569.48
2019-04-19T16:42:00.949Z,101568.34
2019-04-19T16:44:29.721Z,101573.86
2019-04-19T16:46:57.250Z,101571.38
2019-04-19T16:49:24.642Z,101576.75
2019-04-19T16:51:56.161Z,101570.03
2019-04-19T16:54:20.869Z,101571.21
2019-04-19T16:56:48.132Z,101567.50
2019-04-19T16:59:16.191Z,101566.69
2019-04-19T17:01:43.495Z,101570.03
2019-04-19T17:04:11.296Z,101578.79
2019-04-19T17:06:38.677Z,101563.02
2019-04-19T17:09:08.878Z,101567.05
2019-04-19T17:11:36.146Z,101567.38
2019-04-19T17:14:04.861Z,101574.42
2019-04-19T17:17:04.591Z,101569.41
2019-04-19T17:19:52.855Z,101569.78
2019-04-19T17:22:26.315Z,101577.58
2019-04-19T17:24:52.660Z,101572.59
2019-04-19T17:27:27.226Z,101569.89
2019-04-19T17:29:49.998Z,101573.43
2019-04-19T17:32:18.451Z,101578.98
2019-04-19T17:34:46.102Z,101587.69
2019-04-19T17:37:14.084Z,101588.89
2019-04-19T17:39:42.490Z,101578.12
2019-04-19T17:42:10.565Z,101585.53
2019-04-19T17:44:39.667Z,101581.66
2019-04-19T17:47:09.909Z,101588.04
2019-04-19T17:49:40.500Z,101589.91
2019-04-19T17:52:15.102Z,101588.20
2019-04-19T17:54:52.442Z,101588.03
2019-04-19T17:57:07.243Z,101588.41
2019-04-19T17:59:34.713Z,101600.44
2019-04-19T18:02:03.232Z,101596.11
2019-04-19T18:04:30.590Z,101596.61
2019-04-19T18:07:00.980Z,101601.80
2019-04-19T18:09:26.946Z,101604.89
2019-04-19T18:11:55.536Z,101605.73
2019-04-19T18:14:23.443Z,101612.42
2019-04-19T18:16:50.912Z,101611.05
2019-04-19T18:19:25.726Z,101614.28
2019-04-19T18:21:48.100Z,101615.77
2019-04-19T18:24:20.641Z,101618.94
2019-04-19T18:26:44.662Z,101619.94
2019-04-19T18:29:15.041Z,101623.00
2019-04-19T18:31:48.903Z,101623.63
2019-04-19T18:34:13.506Z,101627.10
2019-04-19T18:36:49.725Z,101632.98
2019-04-19T18:39:11.953Z,101626.92
2019-04-19T18:41:41.109Z,101632.22
2019-04-19T18:44:17.188Z,101635.27
2019-04-19T18:46:38.595Z,101634.17
2019-04-19T18:49:07.569Z,101639.69
2019-04-19T18:51:41.487Z,101637.95
2019-04-19T18:54:15.646Z,101634.96
2019-04-19T18:56:34.530Z,101635.80
2019-04-19T18:59:10.706Z,101644.26
2019-04-19T19:01:36.182Z,101643.52
2019-04-19T19:04:00.227Z,101643.20
2019-04-19T19:06:35.082Z,101646.87
2019-04-19T19:09:04.449Z,101647.02
2019-04-19T19:11:28.344Z,101648.35
2019-04-19T19:13:55.753Z,101652.10
2019-04-19T19:16:28.470Z,101649.44
2019-04-19T19:18:54.658Z,101652.77
2019-04-19T19:21:22.044Z,101659.44
2019-04-19T19:24:15.632Z,101665.41
2019-04-19T19:26:27.421Z,101665.05
2019-04-19T19:28:49.870Z,101665.86
2019-04-19T19:31:18.781Z,101665.48
2019-04-19T19:33:49.222Z,101671.86
2019-04-19T19:36:23.406Z,101672.22
2019-04-19T19:38:57.132Z,101673.80
2019-04-19T19:41:36.619Z,101673.86
2019-04-19T19:44:01.178Z,101679.53
2019-04-19T19:46:40.207Z,101683.47
2019-04-19T19:49:27.176Z,101682.02
2019-04-19T19:51:30.734Z,101682.72
2019-04-19T19:56:40.229Z,101689.71
2019-04-19T19:58:51.178Z,101679.64
2019-04-19T20:01:26.739Z,101695.27
2019-04-19T20:03:47.510Z,101699.95
2019-04-19T20:06:17.448Z,101694.84
2019-04-19T20:08:44.000Z,101698.63
2019-04-19T20:11:17.557Z,101697.11
2019-04-19T20:13:42.543Z,101701.61
2019-04-19T20:16:19.051Z,101705.27
2019-04-19T20:18:43.326Z,101705.19
2019-04-19T20:21:10.909Z,101704.71
2019-04-19T20:23:54.145Z,101700.16
2019-04-19T20:26:14.387Z,101702.45
2019-04-19T20:28:37.846Z,101707.44
2019-04-19T20:31:05.993Z,101708.17
2019-04-19T20:33:44.380Z,101710.70
2019-04-19T20:36:07.005Z,101709.99
2019-04-19T20:38:40.557Z,101709.75
2019-04-19T20:41:05.619Z,101713.73
2019-04-19T20:43:46.200Z,101716.53
2019-04-19T20:46:06.623Z,101715.59
2019-04-19T20:48:31.638Z,101719.43
2019-04-19T20:51:08.633Z,101717.50
2019-04-19T20:53:39.106Z,101720.27
2019-04-19T20:56:35.570Z,101723.02
2019-04-19T20:58:47.872Z,101723.77
2019-04-19T21:01:10.442Z,101724.13
2019-04-19T21:03:39.646Z,101722.88
2019-04-19T21:06:06.965Z,101725.39
2019-04-19T21:08:42.370Z,101730.23
2019-04-19T21:11:07.302Z,101729.98
2019-04-19T21:13:33.433Z,101731.23
2019-04-19T21:16:00.845Z,101740.77
2019-04-19T21:18:29.500Z,101739.82
2019-04-19T21:21:04.676Z,101739.31
2019-04-19T21:23:29.466Z,101745.61
2019-04-19T21:25:59.055Z,101744.52
2019-04-19T21:28:35.555Z,101742.57
2019-04-19T21:30:57.843Z,101743.80
2019-04-19T21:33:24.633Z,101748.79
2019-04-19T21:36:00.088Z,101748.92
2019-04-19T21:38:24.746Z,101749.05
2019-04-19T21:40:50.555Z,101745.55
2019-04-19T21:46:34.706Z,101742.27
2019-04-19T21:49:13.801Z,101743.69
2019-04-19T21:54:24.178Z,101759.02
2019-04-19T21:56:58.502Z,101755.52
2019-04-19T21:59:38.618Z,101752.25
2019-04-19T22:02:49.981Z,101756.23
2019-04-19T22:05:29.305Z,101761.41
2019-04-19T22:08:00.404Z,101756.95
2019-04-19T22:10:39.997Z,101756.20
2019-04-19T22:13:10.526Z,101759.56
2019-04-19T22:15:43.827Z,101762.57
2019-04-19T22:18:32.343Z,101760.13
2019-04-19T22:21:06.791Z,101764.97
2019-04-19T22:24:02.737Z,101767.52
2019-04-19T22:26:37.424Z,101762.58
2019-04-19T22:29:21.834Z,101765.58
2019-04-19T22:35:22.688Z,101769.88
2019-04-19T22:37:56.701Z,101777.83
2019-04-19T22:40:34.532Z,101776.38
2019-04-19T22:43:51.006Z,101777.20
2019-04-19T22:46:25.662Z,101773.32
2019-04-19T22:49:05.591Z,101773.06
2019-04-19T22:51:56.463Z,101774.89
2019-04-19T22:54:30.806Z,101783.10
2019-04-19T22:57:07.251Z,101777.39
2019-04-19T22:59:51.989Z,101776.77
2019-04-19T23:02:49.796Z,101778.80
2019-04-19T23:08:29.532Z,101776.66
2019-04-19T23:10:59.021Z,101776.86
2019-04-19T23:16:34.920Z,101779.25
2019-04-19T23:19:19.574Z,101781.08
2019-04-19T23:25:00.044Z,101778.72
2019-04-19T23:27:49.640Z,101782.73
2019-04-19T23:30:28.275Z,101779.70
2019-04-19T23:32:54.345Z,101780.34
2019-04-19T23:35:31.428Z,101777.78
2019-04-19T23:37:51.480Z,101780.05
2019-04-19T23:40:23.649Z,101779.76
2019-04-19T23:42:50.791Z,101776.25
2019-04-19T23:45:18.807Z,101780.30
2019-04-19T23:47:49.874Z,101781.55
2019-04-19T23:50:28.154Z,101780.30
2019-04-19T23:56:45.592Z,101780.09
